LiveATC.Net - Listen to live air traffic control over the Internet!


ICAO: ENGM  IATA: OSL   Airport: Oslo Gardermoen Airport
City: Oslo
Country: Norway   Continent: Europe
ENGM METAR Weather: ENGM 300720Z VRB01KT 2500 1100E R19R/P2000N R01R/1300D R19L/1700N R01L/P2000N BR BCFG VV002 M03/M03 Q1015 TEMPO 0800 FZFG
ENGM Flight Activity (FlightAware)
ENGM Webcam:  (Airport Webcams) 

ENGM Tower
Feed Status: UP   Listeners: 3
Listen in your browser - HTML5 player (in browser, HTML5)
Click here to listen with your own player (launches your MP3 player)
Archive Access: ENGM Tower
FacilityFrequency
Oslo Tower (East)120.100
Oslo Tower (West)118.300

NOTICE

Unauthorized use prohibited. See LiveATC.net Terms of Service


Airport/ARTCC Code
Frequency Search
(e.g., 124.400, 128.75)
Site-wide search
 


Browse Feeds
Top 50 Feeds
Coverage Map
Bad Weather Areas

LiveATC FAQ
Offer LiveATC feed
Contact LiveATC.net
Press Inquiries

LiveATC on iPhone
LiveATC on Android

Windows Phone
Windows 8/10

LiveATC Mobile
(Mobile browser)

ATC Audio Archives
Interesting Recordings

LiveATC Forums


Home Page
About LiveATC.net
Make a Donation
Terms of Use
Privacy Policy

Canadian Air Freqs

AIRMETs/SIGMETs

FAA Airport Status
Nat'l Airspace Status
Arrival Demand Charts


Server Software By:
Icecast.org
Liquidsoap